Coffeyville, Kansas
Current Conditions -  °F | °C
As of 11:52 AM on Sunday 23 Nov 2014 (Local Time) from KCFV Reporting Station
Overcast Overcast  
Wind Chill: 60°   Ceiling: 1600
Heat Index: 60°   Visibility: 10mi
Dew Point: 55°   Wind: 12mph
Humidity: 83%   Direction: 190°S
Pressure: 29.37"   Gusts: NA
Location:  37.03°N, 95.62°W
Report Text: KCFV 231752Z AUTO 19010KT 10SM OVC016 16/13 A2937 RMK AO2 SLP944 T01560128 10161 20139 58036
Loading
Personal Weather Stations






























Interactive Weather Map New forecast layout! Learn more

10-Day Weather Forecast

Advertisements
Track Severe Weather on mobile